Time;durP1;ratioP1;P1;durP2;ratioP2;P2;SDS_P1;SDS_P2;PMS_P1;PMS_P2;Temp;Humidity;BMP_temperature;BMP_pressure;BME280_temperature;BME280_humidity;BME280_pressure;Samples;Min_cycle;Max_cycle;Signal;HPM_P1;HPM_P2
2024/04/23 00:00:11;;;;;;;5.00;2.43;;;5.40;1.00;;;;;;5491326;26;20806;-83
2024/04/23 00:02:37;;;;;;;3.73;2.67;;;5.40;1.00;;;;;;5489808;26;20304;-82
2024/04/23 00:05:02;;;;;;;3.97;2.40;;;5.50;1.00;;;;;;5487155;26;20220;-82
2024/04/23 00:07:29;;;;;;;3.57;2.23;;;5.50;1.00;;;;;;5489780;26;20234;-83
2024/04/23 00:09:55;;;;;;;3.10;2.07;;;5.40;1.00;;;;;;5490415;26;20537;-91
2024/04/23 00:12:20;;;;;;;3.30;2.30;;;5.40;1.00;;;;;;5489626;26;20349;-88
2024/04/23 00:14:47;;;;;;;5.70;2.17;;;5.40;1.00;;;;;;5492819;26;20665;-86
2024/04/23 00:17:14;;;;;;;5.37;2.33;;;5.50;1.00;;;;;;5492192;26;20763;-81
2024/04/23 00:19:39;;;;;;;4.90;2.57;;;5.40;1.00;;;;;;5493550;26;20216;-83
2024/04/23 00:22:05;;;;;;;4.30;2.30;;;5.40;1.00;;;;;;5492598;26;20212;-85
2024/04/23 00:24:33;;;;;;;3.60;2.00;;;5.30;1.00;;;;;;5491951;26;20538;-83
2024/04/23 00:27:00;;;;;;;5.73;2.40;;;5.30;1.00;;;;;;5491841;26;20224;-88
2024/04/23 00:29:26;;;;;;;3.67;2.40;;;5.30;1.00;;;;;;5493236;26;20289;-84
2024/04/23 00:31:53;;;;;;;3.00;2.27;;;5.30;1.00;;;;;;5492825;26;20266;-91
2024/04/23 00:34:19;;;;;;;3.90;2.17;;;5.20;1.00;;;;;;5491872;26;20224;-90
2024/04/23 00:36:58;;;;;;;6.67;2.30;;;5.20;1.00;;;;;;5493533;26;20216;-90
2024/04/23 00:39:25;;;;;;;3.63;2.30;;;5.10;1.00;;;;;;5493278;26;20309;-81
2024/04/23 00:41:52;;;;;;;3.30;2.37;;;5.10;1.00;;;;;;5490697;26;20212;-82
2024/04/23 00:44:17;;;;;;;5.17;2.50;;;5.00;1.00;;;;;;5492301;26;20747;-91
2024/04/23 00:46:44;;;;;;;6.87;2.50;;;5.00;1.00;;;;;;5489480;26;20217;-90
2024/04/23 00:49:12;;;;;;;3.17;2.20;;;5.00;1.00;;;;;;5491212;26;20236;-84
2024/04/23 00:51:40;;;;;;;4.77;2.40;;;5.10;1.00;;;;;;5490711;26;20262;-82
2024/04/23 00:54:07;;;;;;;4.03;2.70;;;5.10;1.00;;;;;;5491319;26;20220;-83
2024/04/23 00:56:34;;;;;;;3.87;2.40;;;5.00;1.00;;;;;;5491280;26;20224;-81
2024/04/23 00:59:00;;;;;;;3.63;2.47;;;5.10;1.00;;;;;;5491745;26;20216;-82
2024/04/23 01:01:26;;;;;;;6.63;2.50;;;5.00;1.00;;;;;;5493274;26;20333;-85
2024/04/23 01:03:52;;;;;;;4.87;2.40;;;5.00;1.00;;;;;;5494004;26;20220;-84
2024/04/23 01:06:18;;;;;;;4.57;2.30;;;5.10;1.00;;;;;;5491014;26;20247;-83
2024/04/23 01:08:45;;;;;;;4.33;2.67;;;5.10;1.00;;;;;;5490978;26;20224;-91
2024/04/23 01:11:10;;;;;;;4.83;2.70;;;5.10;1.00;;;;;;5490071;26;20288;-89
2024/04/23 01:13:36;;;;;;;4.00;2.80;;;5.30;1.00;;;;;;5492897;26;20240;-84
2024/04/23 01:16:04;;;;;;;3.03;2.23;;;5.10;1.00;;;;;;5495802;26;20216;-83
2024/04/23 01:18:29;;;;;;;5.00;2.70;;;5.00;1.00;;;;;;5492229;26;20333;-84
2024/04/23 01:20:58;;;;;;;4.43;2.27;;;4.90;1.00;;;;;;5493683;26;20239;-84
2024/04/23 01:23:52;;;;;;;3.33;2.27;;;4.90;1.00;;;;;;5495325;26;20801;-87
2024/04/23 01:26:19;;;;;;;3.23;2.33;;;4.80;1.00;;;;;;5494181;26;20300;-84
2024/04/23 01:28:46;;;;;;;4.23;2.43;;;4.80;1.00;;;;;;5491728;26;20246;-86
2024/04/23 01:31:13;;;;;;;3.73;2.20;;;4.90;1.00;;;;;;5493899;26;20583;-84
2024/04/23 01:33:42;;;;;;;5.13;2.30;;;5.00;1.00;;;;;;5491136;26;20546;-82
2024/04/23 01:36:09;;;;;;;3.23;2.60;;;5.00;1.00;;;;;;5492275;26;20224;-92
2024/04/23 01:38:37;;;;;;;2.73;2.27;;;4.90;1.00;;;;;;5490677;26;20247;-88
2024/04/23 01:41:04;;;;;;;4.77;2.43;;;4.90;1.00;;;;;;5494596;26;20220;-90
2024/04/23 01:43:31;;;;;;;4.43;2.60;;;4.90;1.00;;;;;;5493387;26;20212;-91
2024/04/23 01:45:58;;;;;;;4.20;2.50;;;4.90;1.00;;;;;;5493721;26;20213;-88
2024/04/23 01:48:24;;;;;;;5.60;2.43;;;4.90;1.00;;;;;;5496149;26;20220;-83
2024/04/23 01:50:50;;;;;;;3.67;2.57;;;4.90;1.00;;;;;;5497883;26;20246;-85
2024/04/23 01:53:16;;;;;;;4.67;2.57;;;4.90;1.00;;;;;;5496783;26;20220;-81
2024/04/23 01:55:42;;;;;;;3.57;2.53;;;4.90;1.00;;;;;;5494039;26;20220;-88
2024/04/23 01:58:08;;;;;;;6.27;2.50;;;4.90;1.00;;;;;;5493826;26;20661;-82
2024/04/23 02:00:37;;;;;;;3.67;2.10;;;4.90;1.00;;;;;;5492573;26;20220;-82
2024/04/23 02:03:05;;;;;;;3.60;2.57;;;4.90;1.00;;;;;;5489860;26;20263;-90
2024/04/23 02:05:31;;;;;;;3.83;2.20;;;4.90;1.00;;;;;;5492368;26;20258;-91
2024/04/23 02:07:57;;;;;;;4.07;2.33;;;4.90;1.00;;;;;;5490298;26;20638;-83
2024/04/23 02:10:22;;;;;;;4.33;2.33;;;4.80;1.00;;;;;;5491494;26;20266;-82
2024/04/23 02:12:49;;;;;;;4.67;2.70;;;4.70;2.00;;;;;;5489077;26;20236;-84
2024/04/23 02:15:17;;;;;;;3.67;2.27;;;4.70;3.30;;;;;;5490992;26;20212;-89
2024/04/23 02:17:43;;;;;;;4.83;2.80;;;4.60;6.00;;;;;;5491781;26;20287;-84
2024/04/23 02:20:10;;;;;;;3.83;2.40;;;4.70;6.40;;;;;;5491828;26;20324;-82
2024/04/23 02:22:36;;;;;;;4.40;2.37;;;4.60;7.00;;;;;;5491278;26;20239;-87
2024/04/23 02:25:03;;;;;;;4.93;2.77;;;4.60;7.70;;;;;;5490107;26;20204;-90
2024/04/23 02:27:29;;;;;;;5.43;3.00;;;4.70;6.00;;;;;;5491694;26;20212;-83
2024/04/23 02:29:55;;;;;;;8.30;3.10;;;4.70;7.90;;;;;;5491313;26;20604;-88
2024/04/23 02:32:20;;;;;;;4.23;2.93;;;4.70;9.90;;;;;;5489186;26;20312;-85
2024/04/23 02:34:46;;;;;;;4.23;2.50;;;4.60;8.90;;;;;;5487643;26;20221;-83
2024/04/23 02:37:12;;;;;;;5.13;3.07;;;4.60;10.90;;;;;;5489883;26;21008;-88
2024/04/23 02:39:37;;;;;;;4.13;2.87;;;4.70;10.90;;;;;;5490733;26;20308;-84
2024/04/23 02:42:04;;;;;;;5.10;3.10;;;4.80;10.40;;;;;;5491925;26;20737;-87
2024/04/23 02:44:31;;;;;;;4.40;2.80;;;4.80;9.50;;;;;;5489921;26;20556;-84
2024/04/23 02:46:56;;;;;;;5.00;2.97;;;5.00;8.00;;;;;;5489089;26;20243;-83
2024/04/23 02:49:22;;;;;;;4.23;2.93;;;4.70;9.70;;;;;;5490363;26;20212;-91
2024/04/23 02:51:53;;;;;;;4.00;2.80;;;4.70;11.70;;;;;;5491308;26;20255;-90
2024/04/23 02:54:22;;;;;;;3.50;2.87;;;4.60;14.10;;;;;;5492850;26;20271;-83
2024/04/23 02:56:48;;;;;;;5.00;2.80;;;4.50;14.50;;;;;;5489950;26;20232;-90
2024/04/23 02:59:17;;;;;;;4.97;2.80;;;4.40;14.40;;;;;;5488784;26;20304;-82
2024/04/23 03:01:43;;;;;;;3.93;2.77;;;4.40;15.90;;;;;;5490558;26;20668;-84
2024/04/23 03:04:09;;;;;;;4.13;3.00;;;4.30;18.90;;;;;;5489778;26;20626;-83
2024/04/23 03:06:36;;;;;;;8.37;3.17;;;4.40;19.60;;;;;;5491593;26;20212;-86
2024/04/23 03:09:02;;;;;;;4.77;2.80;;;4.50;17.00;;;;;;5490134;26;20254;-84
2024/04/23 03:11:28;;;;;;;4.10;2.80;;;4.40;17.50;;;;;;5491354;26;20327;-84
2024/04/23 03:13:54;;;;;;;7.20;2.90;;;4.60;18.30;;;;;;5490866;26;20236;-89
2024/04/23 03:16:19;;;;;;;6.00;3.90;;;4.50;18.60;;;;;;5489382;26;20224;-88
2024/04/23 03:18:45;;;;;;;5.67;2.97;;;4.50;18.50;;;;;;5488564;26;20236;-90
2024/04/23 03:21:11;;;;;;;3.93;2.80;;;4.40;19.40;;;;;;5488863;26;20219;-85
2024/04/23 03:23:36;;;;;;;5.37;2.80;;;4.50;21.30;;;;;;5489893;26;20212;-87
2024/04/23 03:26:02;;;;;;;4.47;2.73;;;4.50;21.10;;;;;;5488662;26;20224;-83
2024/04/23 03:28:28;;;;;;;7.00;3.43;;;4.50;19.70;;;;;;5489222;26;20220;-82
2024/04/23 03:30:54;;;;;;;5.43;3.10;;;4.60;20.10;;;;;;5489332;26;20224;-90
2024/04/23 03:33:19;;;;;;;5.67;3.10;;;4.40;21.80;;;;;;5491001;26;20326;-85
2024/04/23 03:35:45;;;;;;;4.90;3.03;;;4.20;23.00;;;;;;5490544;26;20251;-88
2024/04/23 03:38:11;;;;;;;5.17;3.07;;;4.30;25.70;;;;;;5489666;26;20213;-86
2024/04/23 03:40:36;;;;;;;4.23;3.33;;;4.40;26.80;;;;;;5488095;26;20232;-82
2024/04/23 03:43:02;;;;;;;5.40;3.47;;;4.50;26.70;;;;;;5487595;26;20243;-86
2024/04/23 03:45:28;;;;;;;6.50;3.30;;;4.60;24.10;;;;;;5488114;26;20672;-85
2024/04/23 03:47:53;;;;;;;5.70;3.90;;;4.60;23.70;;;;;;5486205;26;20555;-88
2024/04/23 03:50:19;;;;;;;5.37;3.33;;;4.60;23.10;;;;;;5490530;26;20715;-82
2024/04/23 03:52:45;;;;;;;4.67;2.80;;;4.60;24.20;;;;;;5490663;26;20739;-87
2024/04/23 03:55:10;;;;;;;6.97;3.17;;;4.60;23.60;;;;;;5487224;26;20613;-85
2024/04/23 03:57:36;;;;;;;5.03;3.23;;;4.50;25.40;;;;;;5488651;26;20224;-85
2024/04/23 04:00:02;;;;;;;4.40;3.10;;;4.40;26.10;;;;;;5490998;26;20259;-81
2024/04/23 04:07:56;;;;;;;5.57;2.83;;;4.30;29.20;;;;;;5490302;26;20316;-83
2024/04/23 04:10:22;;;;;;;5.43;3.40;;;4.30;29.50;;;;;;5489052;26;20236;-83
2024/04/23 04:12:48;;;;;;;6.37;3.83;;;4.40;30.90;;;;;;5489475;26;20343;-83
2024/04/23 04:15:14;;;;;;;5.43;3.87;;;4.40;30.00;;;;;;5487791;26;20224;-90
2024/04/23 04:17:40;;;;;;;5.00;3.27;;;4.40;28.30;;;;;;5487822;26;20226;-84
2024/04/23 04:20:06;;;;;;;6.70;3.90;;;4.40;28.70;;;;;;5487147;26;20263;-88
2024/04/23 04:22:32;;;;;;;4.80;3.27;;;4.30;30.40;;;;;;5487430;26;20635;-87
2024/04/23 04:24:58;;;;;;;5.40;4.47;;;4.30;31.90;;;;;;5491897;26;20259;-86
2024/04/23 04:27:23;;;;;;;5.70;3.50;;;4.10;34.60;;;;;;5492884;26;20222;-87
2024/04/23 04:29:49;;;;;;;4.87;4.03;;;4.20;34.10;;;;;;5490288;26;20240;-87
2024/04/23 04:32:15;;;;;;;5.53;4.10;;;4.10;37.20;;;;;;5487435;26;20220;-88
2024/04/23 04:34:40;;;;;;;6.50;3.73;;;4.20;38.20;;;;;;5489669;26;20259;-88
2024/04/23 04:37:06;;;;;;;5.20;3.30;;;4.20;37.10;;;;;;5487967;26;20378;-83
2024/04/23 04:39:37;;;;;;;8.50;5.17;;;4.30;37.80;;;;;;5486608;26;20549;-82
2024/04/23 04:42:02;;;;;;;5.90;3.83;;;4.20;37.70;;;;;;5490398;26;20216;-83
2024/04/23 04:44:28;;;;;;;6.57;4.00;;;4.20;38.40;;;;;;5487944;26;20258;-86
2024/04/23 04:46:54;;;;;;;6.27;4.57;;;4.20;40.30;;;;;;5487261;26;20264;-84
2024/04/23 04:49:19;;;;;;;7.53;4.57;;;4.30;40.80;;;;;;5490379;26;20212;-82
2024/04/23 04:51:45;;;;;;;6.97;4.30;;;4.40;39.90;;;;;;5485892;26;20708;-85
2024/04/23 04:54:10;;;;;;;5.63;4.27;;;4.40;39.90;;;;;;5489059;26;20208;-84
2024/04/23 04:56:36;;;;;;;6.93;4.50;;;4.50;39.00;;;;;;5489567;26;20233;-83
2024/04/23 04:59:02;;;;;;;5.03;4.00;;;4.40;37.40;;;;;;5490286;26;20703;-84
2024/04/23 05:01:28;;;;;;;7.20;4.60;;;4.60;36.90;;;;;;5492295;26;20280;-86
2024/04/23 05:03:57;;;;;;;8.40;4.13;;;4.40;37.80;;;;;;5494674;26;20212;-83
2024/04/23 05:06:22;;;;;;;4.90;3.90;;;4.40;38.60;;;;;;5494014;26;20401;-84
2024/04/23 05:08:48;;;;;;;6.47;4.40;;;4.50;37.90;;;;;;5493351;26;20639;-90
2024/04/23 05:11:14;;;;;;;7.47;4.90;;;4.40;38.30;;;;;;5491490;26;20220;-87
2024/04/23 05:13:40;;;;;;;7.50;4.80;;;4.40;40.20;;;;;;5491066;26;20344;-89
2024/04/23 05:16:08;;;;;;;5.87;4.37;;;4.40;41.30;;;;;;5491915;26;20228;-87
2024/04/23 05:18:34;;;;;;;6.50;4.60;;;4.50;41.20;;;;;;5496640;26;20540;-88
2024/04/23 05:20:59;;;;;;;7.13;4.77;;;4.60;40.00;;;;;;5494509;26;20667;-82
2024/04/23 05:23:25;;;;;;;7.47;4.33;;;4.60;40.00;;;;;;5494679;26;20731;-84
2024/04/23 05:25:53;;;;;;;6.80;4.60;;;4.50;40.50;;;;;;5492442;26;20224;-84
2024/04/23 05:28:22;;;;;;;6.40;4.93;;;4.50;39.50;;;;;;5493011;26;20246;-83
2024/04/23 05:33:31;;;;;;;6.73;4.93;;;4.70;39.00;;;;;;5497622;26;20255;-85
2024/04/23 05:35:57;;;;;;;6.80;4.80;;;4.50;40.50;;;;;;5491522;26;20220;-83
2024/04/23 05:38:23;;;;;;;7.13;4.50;;;4.50;39.70;;;;;;5491481;26;20595;-88
2024/04/23 05:40:49;;;;;;;8.17;4.57;;;4.40;41.40;;;;;;5487479;26;20251;-85
2024/04/23 05:43:15;;;;;;;6.60;4.90;;;4.60;42.00;;;;;;5491426;26;20212;-85
2024/04/23 05:45:40;;;;;;;8.07;5.03;;;4.60;43.10;;;;;;5490435;26;20216;-83
2024/04/23 05:48:43;;;;;;;8.13;5.43;;;4.80;43.20;;;;;;5488470;26;20797;-89
2024/04/23 05:51:48;;;;;;;7.57;4.67;;;4.80;42.40;;;;;;5489648;26;20248;-84
2024/04/23 05:54:51;;;;;;;6.90;4.90;;;4.90;41.30;;;;;;5490362;26;20251;-86
2024/04/23 05:57:17;;;;;;;8.77;4.80;;;4.80;36.30;;;;;;5488463;26;20262;-89
2024/04/23 05:59:42;;;;;;;6.77;4.70;;;4.70;39.40;;;;;;5492600;26;20693;-84
2024/04/23 06:02:08;;;;;;;8.07;5.13;;;4.70;39.10;;;;;;5492036;26;20645;-91
2024/04/23 06:04:34;;;;;;;7.57;5.10;;;4.70;41.00;;;;;;5491390;26;20216;-87
2024/04/23 06:07:00;;;;;;;7.33;5.30;;;4.80;40.90;;;;;;5490939;26;20313;-87
2024/04/23 06:09:26;;;;;;;8.30;5.13;;;4.80;40.60;;;;;;5489252;26;20232;-87
2024/04/23 06:11:52;;;;;;;11.43;5.40;;;4.80;40.80;;;;;;5491590;26;20263;-89
2024/04/23 06:14:18;;;;;;;8.80;5.53;;;4.90;40.30;;;;;;5490992;26;20272;-86
2024/04/23 06:16:44;;;;;;;9.00;6.00;;;4.90;42.10;;;;;;5491905;26;20216;-86
2024/04/23 06:19:10;;;;;;;14.70;6.10;;;5.00;41.60;;;;;;5490304;26;20240;-90
2024/04/23 06:21:39;;;;;;;8.43;5.43;;;5.20;39.80;;;;;;5489899;26;20224;-89
2024/04/23 06:24:06;;;;;;;10.90;5.83;;;5.10;39.80;;;;;;5489006;26;20220;-89
2024/04/23 06:26:32;;;;;;;11.83;6.20;;;5.10;42.50;;;;;;5488278;26;20746;-90
2024/04/23 06:28:58;;;;;;;9.57;5.17;;;5.10;40.70;;;;;;5487702;26;20271;-88
2024/04/23 06:31:29;;;;;;;10.87;5.87;;;5.10;39.80;;;;;;5493284;26;20677;-86
2024/04/23 06:33:54;;;;;;;11.10;5.67;;;5.20;41.40;;;;;;5490714;26;20337;-85
2024/04/23 06:36:21;;;;;;;11.10;6.10;;;5.30;41.20;;;;;;5491570;26;20232;-86
2024/04/23 06:38:47;;;;;;;12.50;6.50;;;5.40;39.90;;;;;;5490250;26;20221;-96
2024/04/23 06:41:12;;;;;;;11.93;6.47;;;5.60;37.40;;;;;;5489305;26;20255;-89
2024/04/23 06:43:39;;;;;;;10.00;6.43;;;5.70;33.60;;;;;;5489421;26;20676;-89
2024/04/23 06:46:04;;;;;;;15.83;7.00;;;5.80;34.20;;;;;;5493399;26;20216;-91
2024/04/23 06:48:31;;;;;;;14.10;6.57;;;6.00;29.90;;;;;;5492388;26;20762;-90
2024/04/23 06:51:01;;;;;;;8.77;5.63;;;6.10;28.30;;;;;;5491520;26;20549;-88
2024/04/23 06:53:27;;;;;;;9.90;6.00;;;6.10;28.20;;;;;;5490984;26;20695;-88
2024/04/23 06:55:54;;;;;;;12.57;5.90;;;6.00;25.80;;;;;;5492509;26;20251;-86
2024/04/23 06:58:19;;;;;;;8.83;5.93;;;6.10;24.50;;;;;;5494499;26;20246;-86
2024/04/23 07:00:45;;;;;;;10.83;6.17;;;6.00;24.60;;;;;;5493128;26;20220;-87
2024/04/23 07:03:12;;;;;;;7.93;5.60;;;6.10;22.40;;;;;;5496011;26;20239;-88
2024/04/23 07:05:37;;;;;;;8.87;5.43;;;6.00;21.10;;;;;;5494034;26;20227;-88
2024/04/23 07:08:03;;;;;;;11.30;6.30;;;6.00;23.30;;;;;;5495646;26;20220;-88
2024/04/23 07:10:32;;;;;;;10.90;7.23;;;6.00;25.40;;;;;;5496055;26;20267;-86
2024/04/23 07:12:58;;;;;;;8.23;5.80;;;6.20;23.50;;;;;;5464170;26;20244;-87
2024/04/23 07:15:28;;;;;;;10.30;6.93;;;6.40;20.70;;;;;;5494241;26;20259;-85
2024/04/23 07:17:57;;;;;;;9.67;6.33;;;6.50;18.20;;;;;;5496938;26;20252;-85
2024/04/23 07:20:23;;;;;;;9.70;6.03;;;6.50;12.10;;;;;;5494536;26;20220;-87
2024/04/23 07:22:49;;;;;;;8.30;5.47;;;6.60;13.40;;;;;;5494300;26;20247;-87
2024/04/23 07:25:15;;;;;;;9.33;6.37;;;6.60;12.30;;;;;;5491906;26;20293;-89
2024/04/23 07:27:41;;;;;;;7.97;5.93;;;6.70;12.50;;;;;;5493763;26;20231;-85
2024/04/23 07:30:08;;;;;;;7.53;6.43;;;6.80;11.80;;;;;;5491968;26;20247;-86
2024/04/23 07:32:33;;;;;;;7.63;6.30;;;6.70;11.90;;;;;;5492044;26;20224;-90
2024/04/23 07:35:01;;;;;;;8.63;6.23;;;6.70;11.10;;;;;;5492341;26;20250;-87
2024/04/23 07:37:27;;;;;;;7.20;5.50;;;6.70;10.70;;;;;;5494745;26;20216;-87
2024/04/23 07:39:53;;;;;;;9.57;6.13;;;6.80;11.50;;;;;;5494013;26;20228;-93
2024/04/23 07:42:19;;;;;;;9.07;6.30;;;7.00;9.20;;;;;;5496598;26;20263;-90
2024/04/23 07:44:46;;;;;;;7.23;6.17;;;7.20;7.60;;;;;;5494850;26;20258;-86
2024/04/23 07:47:12;;;;;;;7.87;6.00;;;7.10;6.20;;;;;;5495607;26;20213;-90
2024/04/23 07:49:38;;;;;;;8.27;7.20;;;7.10;3.80;;;;;;5496902;26;20247;-86
2024/04/23 07:52:06;;;;;;;9.23;6.23;;;7.10;6.90;;;;;;5495338;26;20224;-87
2024/04/23 07:54:31;;;;;;;7.53;5.97;;;7.20;5.70;;;;;;5494812;26;20221;-90
2024/04/23 07:56:57;;;;;;;8.77;6.70;;;7.20;2.80;;;;;;5494598;26;20242;-91
2024/04/23 07:59:22;;;;;;;8.23;6.13;;;7.20;4.70;;;;;;5493547;26;20595;-88
2024/04/23 08:01:48;;;;;;;8.03;6.77;;;7.50;2.60;;;;;;5494149;26;20631;-87
2024/04/23 08:04:15;;;;;;;7.33;6.40;;;7.60;1.00;;;;;;5491004;26;20555;-86
2024/04/23 08:06:40;;;;;;;13.03;7.50;;;7.60;1.00;;;;;;5492224;26;20236;-88
2024/04/23 08:09:06;;;;;;;12.53;6.97;;;7.80;1.00;;;;;;5493591;26;20760;-91
2024/04/23 08:11:33;;;;;;;10.10;6.67;;;7.80;1.00;;;;;;5491106;26;20228;-90
2024/04/23 08:13:58;;;;;;;17.83;8.57;;;7.90;1.00;;;;;;5491620;26;20292;-90
2024/04/23 08:16:24;;;;;;;10.03;6.47;;;8.10;1.00;;;;;;5490601;26;20215;-88
2024/04/23 08:18:50;;;;;;;9.30;7.03;;;8.30;1.00;;;;;;5490220;26;20255;-91
2024/04/23 08:21:15;;;;;;;8.23;6.43;;;8.30;1.00;;;;;;5491037;26;20423;-89
2024/04/23 08:23:42;;;;;;;9.27;6.53;;;8.40;1.00;;;;;;5489450;26;20633;-88
2024/04/23 08:26:14;;;;;;;6.90;6.10;;;8.30;1.00;;;;;;5490518;26;20224;-87
2024/04/23 08:28:40;;;;;;;8.87;6.30;;;8.20;1.00;;;;;;5492129;26;20228;-89
2024/04/23 08:31:06;;;;;;;13.53;7.47;;;8.10;1.00;;;;;;5494532;26;20216;-89
2024/04/23 08:33:38;;;;;;;11.13;7.10;;;8.20;1.00;;;;;;5494023;26;20654;-92
2024/04/23 08:36:04;;;;;;;8.20;6.10;;;8.40;1.00;;;;;;5493647;26;20304;-91
2024/04/23 08:38:29;;;;;;;7.70;5.77;;;8.40;1.00;;;;;;5492934;26;20243;-95
2024/04/23 08:40:56;;;;;;;7.80;6.67;;;8.10;1.00;;;;;;5493437;26;20332;-90
2024/04/23 08:43:30;;;;;;;9.07;6.90;;;8.00;1.00;;;;;;5494796;26;20258;-94
2024/04/23 08:45:59;;;;;;;37.70;12.93;;;8.20;1.00;;;;;;5495136;26;20224;-87
2024/04/23 08:48:29;;;;;;;7.90;6.43;;;8.30;1.00;;;;;;5496389;26;20239;-86
2024/04/23 08:50:58;;;;;;;7.37;6.23;;;8.30;1.00;;;;;;5497138;26;20293;-87
2024/04/23 08:53:27;;;;;;;7.37;6.23;;;8.40;1.00;;;;;;5498401;26;20254;-88
2024/04/23 08:55:57;;;;;;;7.10;5.73;;;8.40;1.00;;;;;;5499630;26;20263;-86
2024/04/23 08:58:25;;;;;;;8.27;6.53;;;8.50;1.00;;;;;;5498641;26;20341;-88
2024/04/23 09:00:55;;;;;;;13.40;8.03;;;8.60;1.00;;;;;;5498456;26;20231;-87
2024/04/23 09:03:51;;;;;;;8.70;7.10;;;8.70;1.00;;;;;;5495306;26;20243;-88
2024/04/23 09:06:17;;;;;;;8.23;6.87;;;8.80;1.00;;;;;;5483640;26;20212;-93
2024/04/23 09:08:46;;;;;;;9.30;6.97;;;8.90;1.00;;;;;;5497575;26;20216;-88
2024/04/23 09:11:14;;;;;;;6.40;5.67;;;9.10;1.00;;;;;;5495559;26;20228;-86
2024/04/23 09:13:41;;;;;;;8.73;5.97;;;8.90;1.00;;;;;;5498737;26;20325;-89
2024/04/23 09:16:07;;;;;;;10.27;6.17;;;8.90;1.00;;;;;;5493287;26;20504;-88
2024/04/23 09:18:33;;;;;;;7.67;5.20;;;8.70;1.00;;;;;;5494711;26;20320;-87
2024/04/23 09:21:00;;;;;;;7.60;5.50;;;8.70;1.00;;;;;;5492397;26;20247;-89
2024/04/23 09:23:33;;;;;;;8.47;5.90;;;8.70;1.00;;;;;;5492889;26;20321;-93
2024/04/23 09:26:06;;;;;;;7.63;5.43;;;8.80;1.00;;;;;;5494330;26;20212;-89
2024/04/23 09:28:33;;;;;;;7.70;6.03;;;8.80;1.00;;;;;;5496223;26;20217;-85
2024/04/23 09:31:00;;;;;;;7.63;5.47;;;8.90;1.00;;;;;;5495924;26;20240;-87
2024/04/23 09:33:29;;;;;;;7.13;4.97;;;9.20;1.00;;;;;;5494261;26;20220;-88
2024/04/23 09:36:02;;;;;;;7.43;6.13;;;9.40;1.00;;;;;;5496859;26;20341;-91
2024/04/23 09:38:33;;;;;;;7.87;5.93;;;9.20;1.00;;;;;;5496336;26;20595;-86
2024/04/23 09:41:14;;;;;;;8.23;6.07;;;9.20;1.00;;;;;;5492979;26;20224;-85
2024/04/23 09:43:55;;;;;;;8.90;5.30;;;9.50;1.00;;;;;;5493733;26;20240;-87
2024/04/23 09:46:28;;;;;;;6.07;5.03;;;9.70;1.00;;;;;;5491047;26;20224;-93
2024/04/23 09:48:59;;;;;;;6.53;5.27;;;10.30;1.00;;;;;;5491932;26;20236;-86
2024/04/23 09:51:28;;;;;;;8.13;5.73;;;10.50;1.00;;;;;;5494034;26;20212;-89
2024/04/23 09:53:54;;;;;;;9.37;5.80;;;10.60;1.00;;;;;;5492201;26;20900;-88
2024/04/23 09:56:20;;;;;;;6.53;5.30;;;10.60;1.00;;;;;;5493116;26;20247;-88
2024/04/23 09:58:48;;;;;;;8.73;5.53;;;10.20;1.00;;;;;;5494590;26;20301;-86
2024/04/23 10:01:18;;;;;;;7.43;5.53;;;10.10;1.00;;;;;;5493763;26;20223;-90
2024/04/23 10:03:44;;;;;;;7.93;5.50;;;10.00;1.00;;;;;;5492555;26;20216;-87
2024/04/23 10:06:21;;;;;;;5.57;4.77;;;10.00;1.00;;;;;;5493653;26;21236;-94
2024/04/23 10:08:53;;;;;;;5.80;5.10;;;10.00;1.00;;;;;;5494050;26;20216;-95
2024/04/23 10:11:27;;;;;;;11.27;5.40;;;10.30;1.00;;;;;;5491881;26;20312;-86
2024/04/23 10:14:31;;;;;;;7.50;5.30;;;10.70;1.00;;;;;;5491243;26;20804;-91
2024/04/23 10:17:15;;;;;;;7.70;5.50;;;10.60;1.00;;;;;;5494581;26;20223;-87
2024/04/23 10:19:44;;;;;;;9.63;5.77;;;10.30;1.00;;;;;;5490686;26;20220;-87
2024/04/23 10:22:12;;;;;;;5.50;5.00;;;10.10;1.00;;;;;;5491327;26;20278;-89
2024/04/23 10:24:39;;;;;;;7.53;5.90;;;10.20;1.00;;;;;;5490919;26;20724;-92
2024/04/23 10:27:07;;;;;;;6.77;5.50;;;10.30;1.00;;;;;;5492427;26;20255;-86
2024/04/23 10:29:34;;;;;;;8.70;5.40;;;10.60;1.00;;;;;;5492717;26;20232;-91
2024/04/23 10:32:00;;;;;;;7.10;5.40;;;10.70;1.00;;;;;;5490698;26;20224;-88
2024/04/23 10:34:29;;;;;;;6.90;4.73;;;11.00;1.00;;;;;;5491960;26;20549;-87
2024/04/23 10:36:56;;;;;;;9.73;6.40;;;11.20;1.00;;;;;;5491790;26;20282;-89
2024/04/23 10:39:23;;;;;;;6.77;5.80;;;11.10;1.00;;;;;;5493143;26;20268;-92
2024/04/23 10:41:49;;;;;;;5.53;4.50;;;11.10;99.90;;;;;;5490834;26;20244;-90
2024/04/23 10:44:16;;;;;;;9.87;5.30;;;10.90;99.90;;;;;;5492945;26;20224;-87
2024/04/23 10:46:44;;;;;;;5.93;4.90;;;10.90;99.90;;;;;;5493885;26;20220;-88
2024/04/23 10:49:18;;;;;;;8.53;5.43;;;10.90;99.90;;;;;;5494698;26;20724;-88
2024/04/23 10:51:47;;;;;;;10.30;5.43;;;10.90;99.90;;;;;;5496474;26;20224;-90
2024/04/23 10:54:19;;;;;;;7.90;5.40;;;10.90;1.00;;;;;;5492789;26;20212;-88
2024/04/23 10:57:00;;;;;;;6.60;4.80;;;10.80;99.90;;;;;;5492997;26;20216;-90
2024/04/23 10:59:33;;;;;;;6.37;5.50;;;10.50;1.00;;;;;;5493441;26;20252;-86
2024/04/23 11:02:07;;;;;;;5.57;4.87;;;10.30;1.00;;;;;;5492531;26;20258;-89
2024/04/23 11:04:40;;;;;;;6.53;5.27;;;10.10;1.00;;;;;;5490160;26;20231;-89
2024/04/23 11:07:08;;;;;;;6.83;4.80;;;10.00;1.00;;;;;;5493837;26;20670;-93
2024/04/23 11:09:39;;;;;;;5.97;5.00;;;10.00;1.00;;;;;;5493960;26;20273;-90
2024/04/23 11:12:25;;;;;;;6.23;5.17;;;10.00;1.00;;;;;;5490393;26;20244;-92
2024/04/23 11:14:51;;;;;;;5.80;4.90;;;10.00;1.00;;;;;;5494689;26;20250;-88
2024/04/23 11:17:24;;;;;;;7.07;4.60;;;10.00;99.90;;;;;;5496527;26;20719;-87
2024/04/23 11:19:59;;;;;;;5.17;4.67;;;10.30;99.90;;;;;;5493289;26;20220;-90
2024/04/23 11:22:29;;;;;;;6.60;4.97;;;10.50;99.90;;;;;;5492365;26;20572;-88
2024/04/23 11:25:05;;;;;;;5.10;4.60;;;10.90;99.90;;;;;;5492945;26;20352;-87
2024/04/23 11:27:31;;;;;;;7.07;5.10;;;11.00;99.90;;;;;;5492772;26;20224;-93
2024/04/23 11:29:59;;;;;;;8.00;6.43;;;11.50;99.90;;;;;;5461748;26;20720;-88
2024/04/23 11:32:25;;;;;;;6.50;5.90;;;11.70;99.90;;;;;;5492224;26;20752;-87
2024/04/23 11:34:53;;;;;;;7.67;6.30;;;11.40;99.90;;;;;;5490534;26;21172;-93
2024/04/23 11:37:24;;;;;;;8.90;6.50;;;11.20;99.90;;;;;;5493677;26;20259;-89
2024/04/23 11:39:57;;;;;;;6.70;5.73;;;11.10;99.90;;;;;;5495103;26;20223;-90
2024/04/23 11:42:27;;;;;;;8.27;6.33;;;11.20;99.90;;;;;;5492468;26;20262;-87
2024/04/23 11:45:05;;;;;;;9.13;6.20;;;11.40;99.90;;;;;;5493194;26;20224;-86
2024/04/23 11:47:32;;;;;;;6.33;5.43;;;11.40;99.90;;;;;;5492753;26;20362;-88
2024/04/23 11:50:04;;;;;;;8.20;5.33;;;11.40;99.90;;;;;;5491742;26;20220;-95
2024/04/23 11:52:31;;;;;;;5.90;5.30;;;11.70;1.00;;;;;;5493250;26;20220;-91
2024/04/23 11:54:57;;;;;;;10.47;6.60;;;11.80;99.90;;;;;;5497220;26;20256;-87
2024/04/23 11:57:25;;;;;;;8.67;5.97;;;12.00;99.90;;;;;;5494556;26;20222;-87
2024/04/23 11:59:51;;;;;;;6.40;5.80;;;12.40;99.90;;;;;;5492587;26;20262;-88
2024/04/23 12:02:17;;;;;;;11.27;6.00;;;12.20;33.50;;;;;;5493551;26;20213;-90
2024/04/23 12:04:47;;;;;;;6.97;5.87;;;11.90;99.90;;;;;;5493512;26;20247;-91
2024/04/23 12:07:13;;;;;;;8.23;6.00;;;11.60;99.90;;;;;;5496627;26;20220;-86
2024/04/23 12:09:39;;;;;;;10.17;6.80;;;11.50;99.90;;;;;;5494798;26;20371;-87
2024/04/23 12:12:07;;;;;;;8.73;6.57;;;11.20;99.90;;;;;;5493805;26;20301;-87
2024/04/23 12:14:34;;;;;;;9.47;6.10;;;11.40;99.90;;;;;;5494994;26;20543;-88
2024/04/23 12:17:01;;;;;;;8.50;5.80;;;11.40;99.90;;;;;;5493017;26;20654;-93
2024/04/23 12:19:30;;;;;;;7.83;5.43;;;11.40;99.90;;;;;;5492774;26;20752;-88
2024/04/23 12:21:58;;;;;;;8.20;5.53;;;11.30;59.70;;;;;;5497578;26;20216;-87
2024/04/23 12:24:39;;;;;;;6.43;5.27;;;11.60;1.00;;;;;;5495031;26;20224;-89
2024/04/23 12:27:04;;;;;;;6.47;4.73;;;11.90;1.00;;;;;;5494132;26;20238;-86
2024/04/23 12:29:30;;;;;;;7.50;4.80;;;12.10;55.10;;;;;;5492603;26;20231;-87
2024/04/23 12:31:59;;;;;;;10.47;5.90;;;12.20;1.00;;;;;;5489849;26;20253;-91
2024/04/23 12:34:25;;;;;;;8.43;5.67;;;12.30;1.00;;;;;;5490822;26;20254;-89
2024/04/23 12:36:51;;;;;;;6.90;5.30;;;12.30;99.90;;;;;;5491695;26;20365;-88
2024/04/23 12:39:19;;;;;;;7.20;5.30;;;12.10;1.00;;;;;;5489037;26;20312;-88
2024/04/23 12:41:50;;;;;;;9.03;5.30;;;12.00;99.90;;;;;;5493933;26;20352;-87
2024/04/23 12:44:17;;;;;;;6.13;5.20;;;11.80;99.90;;;;;;5494765;26;20283;-85
2024/04/23 12:46:43;;;;;;;7.80;5.30;;;11.90;99.90;;;;;;5492080;26;20226;-88
2024/04/23 12:49:11;;;;;;;7.30;5.53;;;11.80;74.30;;;;;;5492852;26;20364;-92
2024/04/23 12:51:36;;;;;;;6.97;5.30;;;11.70;99.90;;;;;;5491288;26;20401;-94
2024/04/23 12:54:08;;;;;;;5.77;5.17;;;11.70;99.90;;;;;;5489667;26;20643;-89
2024/04/23 12:56:35;;;;;;;8.27;5.03;;;11.80;99.90;;;;;;5489506;26;20378;-86
2024/04/23 12:59:00;;;;;;;6.10;4.50;;;11.80;99.90;;;;;;5458571;26;20233;-88
2024/04/23 13:01:26;;;;;;;7.30;4.70;;;11.90;14.90;;;;;;5489078;26;20809;-87
2024/04/23 13:03:52;;;;;;;5.20;4.70;;;11.40;1.00;;;;;;5492158;26;20217;-86
2024/04/23 13:06:19;;;;;;;5.97;4.90;;;11.60;99.90;;;;;;5489999;26;20225;-93
2024/04/23 13:08:46;;;;;;;7.17;4.83;;;11.90;99.90;;;;;;5491022;26;20317;-89